createdAt,value
2018-09-01T00:00:31.015Z,12.30
2018-09-01T00:03:00.390Z,12.10
2018-09-01T00:05:29.809Z,12.00
2018-09-01T00:07:59.191Z,11.90
2018-09-01T00:10:28.614Z,11.90
2018-09-01T00:12:58.009Z,11.90
2018-09-01T00:15:27.432Z,11.90
2018-09-01T00:17:56.817Z,11.90
2018-09-01T00:20:27.341Z,12.00
2018-09-01T00:22:56.733Z,12.00
2018-09-01T00:25:26.154Z,12.10
2018-09-01T00:27:55.545Z,12.10
2018-09-01T00:30:24.957Z,12.10
2018-09-01T00:32:54.327Z,12.00
2018-09-01T00:35:23.782Z,11.90
2018-09-01T00:37:58.741Z,11.80
2018-09-01T00:40:29.070Z,11.70
2018-09-01T00:43:00.836Z,11.60
2018-09-01T00:45:30.641Z,11.60
2018-09-01T00:48:00.213Z,11.60
2018-09-01T00:50:29.593Z,11.50
2018-09-01T00:52:59.014Z,11.30
2018-09-01T00:55:31.937Z,11.30
2018-09-01T00:58:02.153Z,11.30
2018-09-01T01:00:31.526Z,11.40
2018-09-01T01:03:01.149Z,11.40
2018-09-01T01:05:30.541Z,11.40
2018-09-01T01:07:59.921Z,11.40
2018-09-01T01:10:29.289Z,11.30
2018-09-01T01:12:58.743Z,11.20
2018-09-01T01:15:28.100Z,11.10
2018-09-01T01:17:57.533Z,11.00
2018-09-01T01:20:26.927Z,11.00
2018-09-01T01:22:56.371Z,10.90
2018-09-01T01:25:25.739Z,10.90
2018-09-01T01:27:55.149Z,11.00
2018-09-01T01:30:24.543Z,11.20
2018-09-01T01:32:53.958Z,11.30
2018-09-01T01:35:23.342Z,11.40
2018-09-01T01:37:53.895Z,11.30
2018-09-01T01:40:23.279Z,11.30
2018-09-01T01:42:52.698Z,11.30
2018-09-01T01:45:22.069Z,11.30
2018-09-01T01:47:51.519Z,11.30
2018-09-01T01:50:20.904Z,11.30
2018-09-01T01:52:50.297Z,11.40
2018-09-01T01:55:19.685Z,11.50
2018-09-01T01:57:50.371Z,11.50
2018-09-01T02:00:20.010Z,11.40
2018-09-01T02:02:49.894Z,11.40
2018-09-01T02:05:20.230Z,11.40
2018-09-01T02:07:50.857Z,11.30
2018-09-01T02:10:20.225Z,11.20
2018-09-01T02:12:49.831Z,11.20
2018-09-01T02:15:19.207Z,11.10
2018-09-01T02:17:48.634Z,11.10
2018-09-01T02:20:17.998Z,11.20
2018-09-01T02:22:47.502Z,11.20
2018-09-01T02:25:17.249Z,11.20
2018-09-01T02:27:46.646Z,11.10
2018-09-01T02:30:16.031Z,11.10
2018-09-01T02:32:46.563Z,11.00
2018-09-01T02:35:15.936Z,11.00
2018-09-01T02:37:45.386Z,10.90
2018-09-01T02:40:14.745Z,10.80
2018-09-01T02:42:44.203Z,10.90
2018-09-01T02:45:13.573Z,11.00
2018-09-01T02:47:42.977Z,11.00
2018-09-01T02:50:12.343Z,11.00
2018-09-01T02:52:41.814Z,11.10
2018-09-01T02:55:11.187Z,11.10
2018-09-01T02:57:40.609Z,11.00
2018-09-01T03:00:15.253Z,11.00
2018-09-01T03:02:45.590Z,11.00
2018-09-01T03:05:16.305Z,11.00
2018-09-01T03:07:45.826Z,11.00
2018-09-01T03:10:15.387Z,11.10
2018-09-01T03:12:44.761Z,11.20
2018-09-01T03:15:14.190Z,11.10
2018-09-01T03:17:43.563Z,11.10
2018-09-01T03:20:13.012Z,11.00
2018-09-01T03:22:42.395Z,11.00
2018-09-01T03:25:11.803Z,11.10
2018-09-01T03:27:41.196Z,11.10
2018-09-01T03:30:10.616Z,11.10
2018-09-01T03:32:39.993Z,11.10
2018-09-01T03:35:09.435Z,11.10
2018-09-01T03:37:38.808Z,11.10
2018-09-01T03:40:09.370Z,11.10
2018-09-01T03:42:38.731Z,11.00
2018-09-01T03:45:08.180Z,11.10
2018-09-01T03:47:37.599Z,11.10
2018-09-01T03:50:07.177Z,11.00
2018-09-01T03:52:36.551Z,11.00
2018-09-01T03:55:06.370Z,11.00
2018-09-01T03:57:35.731Z,11.00
2018-09-01T04:00:06.522Z,10.90
2018-09-01T04:02:36.058Z,10.90
2018-09-01T04:05:06.018Z,10.90
2018-09-01T04:07:35.442Z,10.90
2018-09-01T04:10:04.839Z,10.90
2018-09-01T04:12:34.206Z,10.90
2018-09-01T04:15:03.673Z,10.90
2018-09-01T04:17:33.038Z,10.80
2018-09-01T04:20:02.469Z,10.80
2018-09-01T04:22:31.843Z,10.80
2018-09-01T04:25:01.278Z,10.80
2018-09-01T04:27:30.674Z,10.80
2018-09-01T04:30:00.298Z,10.80
2018-09-01T04:32:29.677Z,10.80
2018-09-01T04:34:59.074Z,10.70
2018-09-01T04:37:28.443Z,10.70
2018-09-01T04:39:57.878Z,10.70
2018-09-01T04:42:27.251Z,10.80
2018-09-01T04:44:56.691Z,10.80
2018-09-01T04:47:26.049Z,10.80
2018-09-01T04:49:55.497Z,10.80
2018-09-01T04:52:24.875Z,10.80
2018-09-01T04:54:54.291Z,10.80
2018-09-01T04:57:23.700Z,10.80
2018-09-01T04:59:54.223Z,10.80
2018-09-01T05:02:23.602Z,10.70
2018-09-01T05:04:53.029Z,10.80
2018-09-01T05:07:22.432Z,10.80
2018-09-01T05:09:51.832Z,10.80
2018-09-01T05:12:21.194Z,10.80
2018-09-01T05:14:50.626Z,10.80
2018-09-01T05:17:20.082Z,10.80
2018-09-01T05:19:50.651Z,10.80
2018-09-01T05:22:20.038Z,10.80
2018-09-01T05:24:49.486Z,10.90
2018-09-01T05:27:18.875Z,11.00
2018-09-01T05:29:48.259Z,11.00
2018-09-01T05:32:17.665Z,11.00
2018-09-01T05:34:47.076Z,11.10
2018-09-01T05:37:16.554Z,11.00
2018-09-01T05:39:45.991Z,11.10
2018-09-01T05:42:15.370Z,11.10
2018-09-01T05:44:44.797Z,11.10
2018-09-01T05:47:14.180Z,11.20
2018-09-01T05:49:43.592Z,11.20
2018-09-01T05:52:12.961Z,11.30
2018-09-01T05:54:42.386Z,11.30
2018-09-01T05:57:11.751Z,11.40
2018-09-01T05:59:41.210Z,11.40
2018-09-01T06:02:10.585Z,11.50
2018-09-01T06:04:40.008Z,11.50
2018-09-01T06:07:09.361Z,11.60
2018-09-01T06:09:38.814Z,11.60
2018-09-01T06:12:08.186Z,11.70
2018-09-01T06:14:37.606Z,11.90
2018-09-01T06:17:07.318Z,12.00
2018-09-01T06:19:36.731Z,12.00
2018-09-01T06:22:06.094Z,12.10
2018-09-01T06:24:35.522Z,12.10
2018-09-01T06:27:09.430Z,12.10
2018-09-01T06:30:20.876Z,12.00
2018-09-01T06:32:50.202Z,12.10
2018-09-01T06:35:19.741Z,12.10
2018-09-01T06:37:49.278Z,12.10
2018-09-01T06:40:18.854Z,12.00
2018-09-01T06:42:48.222Z,11.90
2018-09-01T06:45:17.767Z,11.90
2018-09-01T06:47:47.121Z,12.00
2018-09-01T06:50:16.654Z,12.00
2018-09-01T06:52:46.030Z,12.10
2018-09-01T06:55:15.578Z,12.20
2018-09-01T06:57:44.947Z,12.30
2018-09-01T07:00:14.467Z,12.40
2018-09-01T07:02:43.835Z,12.60
2018-09-01T07:05:13.410Z,12.60
2018-09-01T07:07:42.797Z,12.80
2018-09-01T07:10:12.458Z,12.90
2018-09-01T07:12:42.130Z,13.20
2018-09-01T07:15:11.717Z,13.40
2018-09-01T07:17:41.304Z,13.50
2018-09-01T07:20:10.870Z,13.50
2018-09-01T07:22:40.458Z,13.60
2018-09-01T07:25:10.035Z,13.60
2018-09-01T07:27:39.422Z,13.70
2018-09-01T07:30:10.768Z,13.80
2018-09-01T07:32:40.642Z,13.90
2018-09-01T07:35:10.227Z,13.90
2018-09-01T07:37:39.594Z,14.00
2018-09-01T07:40:09.108Z,14.10
2018-09-01T07:42:38.481Z,14.30
2018-09-01T07:45:08.024Z,14.30
2018-09-01T07:47:37.377Z,14.30
2018-09-01T07:50:06.968Z,14.40
2018-09-01T07:52:36.323Z,14.50
2018-09-01T07:55:05.980Z,14.60
2018-09-01T07:57:35.359Z,14.80
2018-09-01T08:00:04.958Z,14.80
2018-09-01T08:02:34.363Z,14.90
2018-09-01T08:05:03.844Z,15.10
2018-09-01T08:07:33.245Z,15.20
2018-09-01T08:10:02.770Z,15.20
2018-09-01T08:12:32.145Z,15.30
2018-09-01T08:15:01.718Z,15.30
2018-09-01T08:17:31.102Z,15.50
2018-09-01T08:20:00.667Z,15.60
2018-09-01T08:22:30.038Z,15.70
2018-09-01T08:24:59.722Z,15.80
2018-09-01T08:27:29.116Z,16.00
2018-09-01T08:29:58.682Z,16.00
2018-09-01T08:32:28.055Z,16.00
2018-09-01T08:34:57.613Z,16.10
2018-09-01T08:37:26.973Z,16.30
2018-09-01T08:39:56.575Z,16.30
2018-09-01T08:42:25.943Z,16.30
2018-09-01T08:44:55.417Z,16.40
2018-09-01T08:47:24.798Z,16.50
2018-09-01T08:49:54.211Z,16.50
2018-09-01T08:52:23.586Z,16.50
2018-09-01T08:54:53.018Z,16.60
2018-09-01T08:57:22.389Z,16.70
2018-09-01T08:59:51.813Z,16.70
2018-09-01T09:02:21.220Z,16.90
2018-09-01T09:04:50.626Z,16.90
2018-09-01T09:07:20.161Z,17.10
2018-09-01T09:09:49.641Z,17.20
2018-09-01T09:12:19.280Z,17.10
2018-09-01T09:14:48.686Z,17.20
2018-09-01T09:17:18.049Z,17.30
2018-09-01T09:19:47.454Z,17.30
2018-09-01T09:22:16.830Z,17.60
2018-09-01T09:24:46.280Z,17.80
2018-09-01T09:27:15.638Z,17.70
2018-09-01T09:29:45.059Z,17.90
2018-09-01T09:32:14.409Z,18.20
2018-09-01T09:34:43.902Z,18.20
2018-09-01T09:37:13.260Z,18.20
2018-09-01T09:39:42.682Z,18.40
2018-09-01T09:42:12.044Z,18.60
2018-09-01T09:44:41.478Z,18.80
2018-09-01T09:47:10.833Z,18.90
2018-09-01T09:49:40.292Z,18.90
2018-09-01T09:52:09.662Z,19.00
2018-09-01T09:54:39.091Z,19.20
2018-09-01T09:57:08.448Z,19.30
2018-09-01T09:59:37.923Z,18.80
2018-09-01T10:02:07.305Z,18.30
2018-09-01T10:04:36.691Z,17.90
2018-09-01T10:07:06.111Z,17.70
2018-09-01T10:09:35.538Z,17.90
2018-09-01T10:12:04.950Z,18.10
2018-09-01T10:14:34.403Z,18.00
2018-09-01T10:17:03.770Z,18.00
2018-09-01T10:19:33.214Z,18.10
2018-09-01T10:22:02.589Z,18.30
2018-09-01T10:24:32.043Z,18.50
2018-09-01T10:27:02.517Z,18.90
2018-09-01T10:29:31.859Z,19.10
2018-09-01T10:32:01.333Z,19.10
2018-09-01T10:34:30.703Z,19.00
2018-09-01T10:37:00.211Z,18.80
2018-09-01T10:39:29.578Z,18.80
2018-09-01T10:41:59.058Z,18.60
2018-09-01T10:44:28.445Z,18.40
2018-09-01T10:46:57.882Z,18.60
2018-09-01T10:49:27.234Z,19.00
2018-09-01T10:51:56.691Z,19.30
2018-09-01T10:54:26.080Z,19.00
2018-09-01T10:56:55.496Z,18.80
2018-09-01T10:59:25.081Z,18.80
2018-09-01T11:01:54.519Z,18.80
2018-09-01T11:04:23.951Z,19.10
2018-09-01T11:06:53.337Z,19.70
2018-09-01T11:09:22.747Z,20.20
2018-09-01T11:11:52.271Z,20.40
2018-09-01T11:14:21.665Z,20.30
2018-09-01T11:16:51.122Z,20.50
2018-09-01T11:19:20.496Z,20.40
2018-09-01T11:21:49.924Z,20.50
2018-09-01T11:24:19.283Z,21.10
2018-09-01T11:26:48.717Z,20.50
2018-09-01T11:29:18.086Z,20.80
2018-09-01T11:31:47.508Z,21.60
2018-09-01T11:34:16.867Z,22.20
2018-09-01T11:36:46.394Z,22.90
2018-09-01T11:39:15.723Z,22.40
2018-09-01T11:41:45.135Z,22.40
2018-09-01T11:44:14.554Z,22.40
2018-09-01T11:46:44.068Z,22.30
2018-09-01T11:49:13.477Z,22.80
2018-09-01T11:51:42.962Z,22.90
2018-09-01T11:54:12.319Z,21.80
2018-09-01T11:56:41.800Z,21.00
2018-09-01T11:59:11.157Z,20.50
2018-09-01T12:01:40.578Z,20.10
2018-09-01T12:04:09.940Z,20.80
2018-09-01T12:06:39.376Z,21.40
2018-09-01T12:09:09.172Z,22.70
2018-09-01T12:11:38.534Z,23.10
2018-09-01T12:14:07.892Z,23.50
2018-09-01T12:16:37.296Z,22.90
2018-09-01T12:19:06.751Z,22.00
2018-09-01T12:21:36.211Z,22.10
2018-09-01T12:24:05.686Z,21.70
2018-09-01T12:26:35.111Z,22.50
2018-09-01T12:29:04.480Z,23.00
2018-09-01T12:31:33.912Z,22.40
2018-09-01T12:34:34.555Z,22.00
2018-09-01T12:37:03.968Z,21.40
2018-09-01T12:39:33.472Z,20.90
2018-09-01T12:42:02.876Z,20.80
2018-09-01T12:44:32.268Z,20.80
2018-09-01T12:47:01.648Z,20.60
2018-09-01T12:49:31.076Z,20.80
2018-09-01T12:52:00.458Z,21.20
2018-09-01T12:54:29.871Z,21.40
2018-09-01T12:56:59.260Z,21.70
2018-09-01T12:59:28.687Z,21.40
2018-09-01T13:01:58.029Z,21.40
2018-09-01T13:04:27.489Z,21.20
2018-09-01T13:06:56.865Z,21.00
2018-09-01T13:09:26.282Z,20.80
2018-09-01T13:11:55.665Z,20.50
2018-09-01T13:14:25.069Z,20.40
2018-09-01T13:16:54.453Z,21.00
2018-09-01T13:19:23.831Z,22.20
2018-09-01T13:21:53.207Z,23.00
2018-09-01T13:24:22.708Z,23.20
2018-09-01T13:26:52.077Z,23.60
2018-09-01T13:29:21.633Z,23.30
2018-09-01T13:31:51.035Z,22.70
2018-09-01T13:34:21.461Z,23.10
2018-09-01T13:36:50.844Z,22.60
2018-09-01T13:39:20.368Z,22.40
2018-09-01T13:41:49.771Z,22.10
2018-09-01T13:44:19.402Z,22.00
2018-09-01T13:46:48.813Z,21.50
2018-09-01T13:49:18.245Z,21.00
2018-09-01T13:51:47.616Z,20.50
2018-09-01T13:54:17.030Z,20.40
2018-09-01T13:56:46.513Z,20.30
2018-09-01T13:59:16.122Z,20.20
2018-09-01T14:01:45.518Z,20.20
2018-09-01T14:04:14.997Z,20.10
2018-09-01T14:06:44.361Z,21.00
2018-09-01T14:09:13.795Z,22.60
2018-09-01T14:11:43.182Z,23.40
2018-09-01T14:14:12.629Z,23.50
2018-09-01T14:16:41.980Z,23.10
2018-09-01T14:19:11.426Z,22.60
2018-09-01T14:21:40.909Z,22.10
2018-09-01T14:24:10.440Z,21.50
2018-09-01T14:26:39.843Z,21.50
2018-09-01T14:29:09.324Z,23.10
2018-09-01T14:31:38.690Z,23.90
2018-09-01T14:34:08.194Z,24.00
2018-09-01T14:36:37.659Z,23.90
2018-09-01T14:39:10.087Z,24.20
2018-09-01T14:41:39.480Z,24.20
2018-09-01T14:44:09.055Z,24.60
2018-09-01T14:46:38.567Z,23.90
2018-09-01T14:49:08.029Z,24.20
2018-09-01T14:51:37.413Z,24.20
2018-09-01T14:54:07.349Z,25.20
2018-09-01T14:56:36.736Z,25.90
2018-09-01T14:59:06.442Z,25.90
2018-09-01T15:01:35.818Z,25.30
2018-09-01T15:04:05.265Z,25.40
2018-09-01T15:06:34.628Z,25.40
2018-09-01T15:09:04.759Z,25.70
2018-09-01T15:11:34.144Z,25.20
2018-09-01T15:14:03.628Z,24.20
2018-09-01T15:16:32.997Z,24.70
2018-09-01T15:19:02.514Z,24.30
2018-09-01T15:21:31.873Z,25.00
2018-09-01T15:24:01.421Z,25.70
2018-09-01T15:26:30.795Z,26.40
2018-09-01T15:29:00.311Z,26.60
2018-09-01T15:31:29.678Z,26.60
2018-09-01T15:33:59.155Z,26.50
2018-09-01T15:36:28.529Z,25.90
2018-09-01T15:38:57.958Z,25.40
2018-09-01T15:41:27.427Z,24.30
2018-09-01T15:43:57.995Z,23.30
2018-09-01T15:46:27.365Z,22.80
2018-09-01T15:48:56.863Z,22.50
2018-09-01T15:51:26.290Z,21.90
2018-09-01T15:53:56.034Z,21.80
2018-09-01T15:56:25.384Z,21.50
2018-09-01T15:58:54.907Z,21.60
2018-09-01T16:01:24.308Z,21.50
2018-09-01T16:03:53.685Z,21.20
2018-09-01T16:06:23.072Z,21.70
2018-09-01T16:08:52.600Z,22.10
2018-09-01T16:11:21.962Z,22.40
2018-09-01T16:13:51.508Z,21.80
2018-09-01T16:16:20.891Z,21.50
2018-09-01T16:18:50.425Z,21.20
2018-09-01T16:21:19.862Z,21.00
2018-09-01T16:23:49.330Z,20.70
2018-09-01T16:26:18.714Z,20.50
2018-09-01T16:28:48.470Z,20.60
2018-09-01T16:31:17.855Z,20.40
2018-09-01T16:33:47.375Z,20.60
2018-09-01T16:36:16.774Z,21.50
2018-09-01T16:38:46.253Z,21.80
2018-09-01T16:41:15.630Z,21.50
2018-09-01T16:43:45.156Z,21.30
2018-09-01T16:46:14.537Z,21.20
2018-09-01T16:48:43.923Z,20.90
2018-09-01T16:51:13.356Z,20.90
2018-09-01T16:53:42.781Z,20.80
2018-09-01T16:56:12.139Z,20.80
2018-09-01T16:58:41.683Z,20.60
2018-09-01T17:01:11.055Z,20.40
2018-09-01T17:03:40.566Z,20.30
2018-09-01T17:06:09.929Z,20.30
2018-09-01T17:08:39.391Z,20.20
2018-09-01T17:11:08.824Z,20.20
2018-09-01T17:13:38.303Z,20.20
2018-09-01T17:16:07.823Z,20.10
2018-09-01T17:18:37.436Z,20.00
2018-09-01T17:21:06.826Z,20.00
2018-09-01T17:23:36.476Z,19.90
2018-09-01T17:26:06.131Z,19.90
2018-09-01T17:28:35.696Z,19.80
2018-09-01T17:31:05.218Z,19.70
2018-09-01T17:33:34.769Z,19.70
2018-09-01T17:36:04.175Z,19.80
2018-09-01T17:38:33.663Z,19.70
2018-09-01T17:41:03.052Z,19.70
2018-09-01T17:43:32.534Z,19.60
2018-09-01T17:46:02.005Z,19.50
2018-09-01T17:48:31.564Z,19.50
2018-09-01T17:51:00.838Z,19.50
2018-09-01T17:53:30.377Z,19.40
2018-09-01T17:55:59.765Z,19.40
2018-09-01T17:58:29.162Z,19.40
2018-09-01T18:00:58.683Z,19.30
2018-09-01T18:03:28.215Z,19.30
2018-09-01T18:05:57.670Z,19.20
2018-09-01T18:08:27.206Z,19.20
2018-09-01T18:10:56.591Z,19.20
2018-09-01T18:13:26.024Z,19.10
2018-09-01T18:15:55.448Z,19.10
2018-09-01T18:18:24.939Z,19.00
2018-09-01T18:20:54.283Z,18.90
2018-09-01T18:23:23.733Z,18.90
2018-09-01T18:25:53.120Z,18.90
2018-09-01T18:28:22.611Z,18.80
2018-09-01T18:30:52.018Z,18.80
2018-09-01T18:33:21.607Z,18.70
2018-09-01T18:35:50.970Z,18.70
2018-09-01T18:38:20.459Z,18.60
2018-09-01T18:40:49.911Z,18.60
2018-09-01T18:43:19.412Z,18.60
2018-09-01T18:45:48.835Z,18.50
2018-09-01T18:48:18.256Z,18.50
2018-09-01T18:50:47.665Z,18.40
2018-09-01T18:53:17.195Z,18.40
2018-09-01T18:55:46.642Z,18.40
2018-09-01T18:58:16.134Z,18.30
2018-09-01T19:00:45.526Z,18.30
2018-09-01T19:03:15.082Z,18.20
2018-09-01T19:05:44.466Z,18.20
2018-09-01T19:08:14.050Z,18.10
2018-09-01T19:10:43.479Z,18.20
2018-09-01T19:13:13.104Z,18.20
2018-09-01T19:15:42.484Z,18.20
2018-09-01T19:18:12.155Z,18.10
2018-09-01T19:20:41.566Z,18.10
2018-09-01T19:23:11.116Z,18.10
2018-09-01T19:25:40.503Z,18.10
2018-09-01T19:28:10.058Z,18.00
2018-09-01T19:30:39.450Z,18.00
2018-09-01T19:33:08.866Z,17.90
2018-09-01T19:35:38.377Z,17.90
2018-09-01T19:38:07.832Z,17.70
2018-09-01T19:40:37.206Z,17.70
2018-09-01T19:43:07.293Z,17.70
2018-09-01T19:45:38.015Z,17.70
2018-09-01T19:48:07.400Z,17.70
2018-09-01T19:50:36.835Z,17.60
2018-09-01T19:53:06.366Z,17.50
2018-09-01T19:55:35.794Z,17.50
2018-09-01T19:58:05.263Z,17.40
2018-09-01T20:00:34.866Z,17.40
2018-09-01T20:03:04.270Z,17.30
2018-09-01T20:05:33.724Z,17.40
2018-09-01T20:08:03.078Z,17.50
2018-09-01T20:10:32.646Z,17.50
2018-09-01T20:13:02.047Z,17.50
2018-09-01T20:15:31.578Z,17.50
2018-09-01T20:18:00.950Z,17.50
2018-09-01T20:20:30.396Z,17.40
2018-09-01T20:22:59.909Z,17.40
2018-09-01T20:25:29.344Z,17.40
2018-09-01T20:27:58.734Z,17.20
2018-09-01T20:30:28.277Z,17.20
2018-09-01T20:32:57.646Z,17.10
2018-09-01T20:35:32.478Z,17.00
2018-09-01T20:38:01.979Z,17.00
2018-09-01T20:40:31.470Z,17.10
2018-09-01T20:43:00.930Z,17.10
2018-09-01T20:45:30.358Z,17.00
2018-09-01T20:47:59.929Z,17.00
2018-09-01T20:50:29.318Z,16.90
2018-09-01T20:52:58.850Z,16.90
2018-09-01T20:55:28.225Z,16.90
2018-09-01T20:57:57.740Z,16.90
2018-09-01T21:00:27.141Z,16.80
2018-09-01T21:02:56.734Z,16.80
2018-09-01T21:05:26.252Z,16.80
2018-09-01T21:07:55.733Z,16.80
2018-09-01T21:10:25.326Z,16.80
2018-09-01T21:12:54.998Z,16.90
2018-09-01T21:15:24.433Z,16.90
2018-09-01T21:17:53.882Z,16.90
2018-09-01T21:20:23.254Z,17.00
2018-09-01T21:22:52.696Z,17.00
2018-09-01T21:25:22.062Z,17.00
2018-09-01T21:27:51.587Z,17.00
2018-09-01T21:30:21.090Z,17.00
2018-09-01T21:32:50.931Z,16.90
2018-09-01T21:35:20.466Z,16.80
2018-09-01T21:37:50.357Z,16.70
2018-09-01T21:40:19.835Z,16.70
2018-09-01T21:42:49.214Z,16.60
2018-09-01T21:45:18.805Z,16.60
2018-09-01T21:47:48.166Z,16.60
2018-09-01T21:50:17.652Z,16.50
2018-09-01T21:52:47.034Z,16.50
2018-09-01T21:55:16.659Z,16.50
2018-09-01T21:57:46.240Z,16.50
2018-09-01T22:00:15.675Z,16.40
2018-09-01T22:02:45.086Z,16.40
2018-09-01T22:05:15.569Z,16.30
2018-09-01T22:07:45.242Z,16.30
2018-09-01T22:10:14.801Z,16.30
2018-09-01T22:12:44.169Z,16.30
2018-09-01T22:15:13.704Z,16.30
2018-09-01T22:17:43.108Z,16.30
2018-09-01T22:20:12.634Z,16.20
2018-09-01T22:22:42.014Z,16.20
2018-09-01T22:25:11.562Z,16.20
2018-09-01T22:27:40.935Z,16.20
2018-09-01T22:30:11.900Z,16.20
2018-09-01T22:32:41.479Z,16.20
2018-09-01T22:35:11.191Z,16.10
2018-09-01T22:37:40.621Z,16.10
2018-09-01T22:40:10.071Z,16.10
2018-09-01T22:42:39.484Z,16.10
2018-09-01T22:45:09.036Z,16.20
2018-09-01T22:47:39.012Z,16.30
2018-09-01T22:50:09.642Z,16.30
2018-09-01T22:52:39.059Z,16.30
2018-09-01T22:55:08.539Z,16.20
2018-09-01T22:57:37.984Z,16.10
2018-09-01T23:00:07.473Z,16.10
2018-09-01T23:02:36.862Z,16.00
2018-09-01T23:05:06.382Z,16.00
2018-09-01T23:07:35.755Z,15.90
2018-09-01T23:10:05.298Z,15.90
2018-09-01T23:12:34.807Z,15.90
2018-09-01T23:15:04.242Z,15.90
2018-09-01T23:17:33.830Z,16.00
2018-09-01T23:20:03.214Z,15.90
2018-09-01T23:22:33.079Z,16.00
2018-09-01T23:25:02.446Z,16.00
2018-09-01T23:27:31.919Z,16.00
2018-09-01T23:30:01.302Z,15.90
2018-09-01T23:32:30.851Z,15.90
2018-09-01T23:35:00.237Z,15.90
2018-09-01T23:37:29.743Z,15.90
2018-09-01T23:39:59.140Z,15.90
2018-09-01T23:42:28.549Z,15.90
2018-09-01T23:44:57.940Z,15.90
2018-09-01T23:47:27.482Z,15.90
2018-09-01T23:49:56.852Z,15.80
2018-09-01T23:52:26.334Z,15.90
2018-09-01T23:54:55.722Z,15.90
2018-09-01T23:57:25.242Z,16.00
2018-09-01T23:59:54.605Z,16.00
